Latest Coastal Weather Observations for Hobart

IDT60701

Issued at 6:15 pm EST Saturday 30 August 2014 (issued every 10 minutes, with the page automatically refreshed every 10 minutes)

About coastal observations | Map of coastal stations | Coastal observations for TAS | Marine services | Other Formats
Station Details ID: 094029 Name: HOBART (ELLERSLIE ROAD) Lat: -42.89 Lon: 147.33 Height: 50.5 m
Data from the previous 72 hours. | See also: Recent months at Hobart
Date/Time
EST
Temp

°C
Wind Pressure Rain
since 9am
mm
Weather Cloud Vis
km
Sea
Height
m
Swell
Dir
 
Speed
knots
Gust
knots
hPa Trend Height
m
Period
s
Dir
30/06:00pm 14.9 N 7 10 1022.3 - 0.0 - - - - - - -
30/05:30pm 15.5 N 6 9 1022.3 - 0.0 - - - - - - -
30/05:00pm 15.9 NNE 7 11 1022.5 - 0.0 - - - - - - -
30/04:30pm 16.3 N 8 12 1022.7 - 0.0 - - - - - - -
30/04:00pm 16.9 NNE 8 16 1022.7 - 0.0 - - - - - - -
30/03:30pm 17.5 N 7 8 1022.9 - 0.0 - - - - - - -
30/03:00pm 17.6 NNE 7 10 1023.3 - 0.0 - - - - - - -
30/02:30pm 17.4 NNE 7 11 1023.6 - 0.0 - - - - - - -
30/02:00pm 18.0 N 9 12 1023.9 - 0.0 - - - - - - -
30/01:30pm 17.9 NW 11 16 1024.3 - 0.0 - - - - - - -
30/01:00pm 17.2 NNW 11 15 1024.7 - 0.0 - - - - - - -
30/12:30pm 16.2 NNW 11 16 1025.3 - 0.0 - - - - - - -
30/12:00pm 15.7 N 11 16 1025.8 - 0.0 - - - - - - -
30/11:30am 15.6 NNW 12 17 1026.3 - 0.0 - - - - - - -
30/11:00am 13.8 NNW 12 15 1026.8 - 0.0 - - - - - - -
30/10:30am 12.2 NW 12 16 1027.2 - 0.0 - - - - - - -
30/10:00am 11.0 NNW 12 17 1027.5 - 0.0 - - - - - - -
30/09:30am 9.9 NNW 14 19 1027.8 - 0.0 - - - - - - -
30/09:00am 9.1 NNW 12 17 1028.1 - 0.0 - - - - - - -
30/08:30am 7.9 NNW 10 16 1028.6 - 0.0 - - - - - - -
30/08:00am 7.5 NNW 11 14 1028.6 - 0.0 - - - - - - -
30/07:30am 7.6 NNW 10 14 1028.7 - 0.0 - - - - - - -
30/07:00am 7.0 NW 10 15 1028.5 - 0.0 - - - - - - -
30/06:30am 6.9 NW 9 13 1028.2 - 0.0 - - - - - - -
30/06:00am 7.0 NW 9 11 1028.3 - 0.0 - - - - - - -
30/05:30am 6.9 NNW 7 11 1028.3 - 0.0 - - - - - - -
30/05:00am 7.2 NNW 11 15 1028.2 - 0.0 - - - - - - -
30/04:30am 7.4 NW 8 11 1028.5 - 0.0 - - - - - - -
30/04:00am 7.6 NNW 9 14 1028.5 - 0.0 - - - - - - -
30/03:30am 8.0 NNW 8 11 1028.5 - 0.0 - - - - - - -
30/03:00am 8.1 NNW 7 10 1028.7 - 0.0 - - - - - - -
30/02:30am 8.3 NW 7 10 1028.8 - 0.0 - - - - - - -
30/02:00am 8.1 NW 6 8 1029.0 - 0.0 - - - - - - -
30/01:30am 8.5 NNW 7 9 1029.2 - 0.0 - - - - - - -
30/01:00am 7.9 NW 5 7 1029.4 - 0.0 - - - - - - -
30/12:30am 7.6 NNW 3 4 1029.5 - 0.0 - - - - - - -
30/12:00am 8.1 NW 3 3 1029.5 - 0.0 - - - - - - -
 
Date/Time
EST
Temp

°C
Wind Pressure Rain
since 9am
mm
Weather Cloud Vis
km
Sea
Height
m
Swell
Dir
 
Speed
knots
Gust
knots
hPa Trend Height
m
Period
s
Dir
29/11:30pm 8.4 NNW 1 3 1029.6 - 0.0 - - - - - - -
29/11:00pm 8.3 W 3 5 1029.7 - 0.0 - - - - - - -
29/10:30pm 8.7 NW 2 4 1029.8 - 0.0 - - - - - - -
29/10:00pm 8.9 W 4 5 1029.9 - 0.0 - - - - - - -
29/09:30pm 9.2 WNW 3 4 1029.8 - 0.0 - - - - - - -
29/09:00pm 9.6 CALM 0 0 1029.9 - 0.0 - - - - - - -
29/08:30pm 10.1 CALM 0 0 1029.9 - 0.0 - - - - - - -
29/08:00pm 10.3 SW 4 5 1029.7 - 0.0 - - - - - - -
29/07:30pm 11.0 WSW 6 8 1029.6 - 0.0 - - - - - - -
29/07:00pm 11.2 WSW 6 8 1029.6 - 0.0 - - - - - - -
29/06:30pm 11.6 WSW 7 9 1029.7 - 0.0 - - - - - - -
29/06:00pm 12.2 WSW 7 8 1029.4 - 0.0 - - - - - - -
29/05:30pm 13.4 SSE 6 7 1029.3 - 0.0 - - - - - - -
29/05:00pm 13.7 SE 6 8 1029.1 - 0.0 - - - - - - -
29/04:30pm 14.5 SE 6 8 1028.8 - 0.0 - - - - - - -
29/04:00pm 15.0 ESE 7 10 1028.6 - 0.0 - - - - - - -
29/03:30pm 15.5 ESE 7 9 1028.3 - 0.0 - - - - - - -
29/03:00pm 15.5 SE 8 10 1028.5 - 0.0 - - - - - - -
29/02:30pm 15.6 ESE 7 8 1028.5 - 0.0 - - - - - - -
29/02:00pm 15.6 ESE 7 8 1028.6 - 0.0 - - - - - - -
29/01:30pm 15.1 E 7 8 1028.8 - 0.0 - - - - - - -
29/01:00pm 15.3 ESE 6 8 1029.1 - 0.0 - - - - - - -
29/12:30pm 15.5 ESE 5 7 1029.2 - 0.0 - - - - - - -
29/12:00pm 15.6 NNE 5 7 1029.5 - 0.0 - - - - - - -
29/11:30am 15.9 NNW 6 9 1029.7 - 0.0 - - - - - - -
29/11:00am 14.9 N 7 10 1029.9 - 0.0 - - - - - - -
29/10:30am 13.9 N 7 11 1030.0 - 0.0 - - - - - - -
29/10:00am 12.3 NNW 9 12 1030.0 - 0.0 - - - - - - -
29/09:30am 11.0 NNW 8 11 1030.1 - 0.0 - - - - - - -
29/09:00am 9.5 NNW 8 11 1030.1 - 0.0 - - - - - - -
29/08:30am 9.4 NNW 8 13 1029.9 - 0.0 - - - - - - -
29/08:00am 8.6 NNW 8 11 1029.8 - 0.0 - - - - - - -
29/07:30am 8.1 NW 7 11 1029.5 - 0.0 - - - - - - -
29/07:00am 7.6 NW 7 9 1029.3 - 0.0 - - - - - - -
29/06:30am 8.2 NNW 8 10 1028.9 - 0.0 - - - - - - -
29/06:00am 7.1 NW 5 7 1028.6 - 0.0 - - - - - - -
29/05:30am 6.9 NNW 5 7 1028.3 - 0.0 - - - - - - -
29/05:00am 7.3 NW 5 7 1028.3 - 0.0 - - - - - - -
29/04:30am 7.2 NW 5 7 1028.0 - 0.0 - - - - - - -
29/04:00am 7.7 NW 5 8 1028.0 - 0.0 - - - - - - -
29/03:30am 7.9 WNW 6 8 1027.9 - 0.0 - - - - - - -
29/03:00am 7.5 NW 3 5 1027.9 - 0.0 - - - - - - -
29/02:30am 7.4 CALM 0 0 1028.0 - 0.0 - - - - - - -
29/02:00am 7.9 NNW 2 5 1028.0 - 0.0 - - - - - - -
29/01:30am 8.0 CALM 0 0 1028.1 - 0.0 - - - - - - -
29/01:00am 8.2 CALM 0 4 1028.0 - 0.0 - - - - - - -
29/12:30am 8.6 W 3 5 1027.9 - 0.0 - - - - - - -
29/12:00am 8.5 W 4 6 1027.9 - 0.0 - - - - - - -
 
Date/Time
EST
Temp

°C
Wind Pressure Rain
since 9am
mm
Weather Cloud Vis
km
Sea
Height
m
Swell
Dir
 
Speed
knots
Gust
knots
hPa Trend Height
m
Period
s
Dir
28/11:30pm 8.6 WNW 1 4 1027.9 - 0.0 - - - - - - -
28/11:00pm 9.0 WNW 3 4 1027.9 - 0.0 - - - - - - -
28/10:30pm 9.2 WNW 3 4 1028.0 - 0.0 - - - - - - -
28/10:00pm 9.4 WNW 4 5 1028.0 - 0.0 - - - - - - -
28/09:30pm 9.7 W 5 6 1028.0 - 0.0 - - - - - - -
28/09:00pm 10.3 WSW 5 7 1027.9 - 0.0 - - - - - - -
28/08:30pm 11.3 SW 7 9 1027.9 - 0.0 - - - - - - -
28/08:00pm 11.2 SW 5 8 1027.8 - 0.0 - - - - - - -
28/07:30pm 11.4 SW 6 8 1027.7 - 0.0 - - - - - - -
28/07:00pm 11.5 WSW 6 8 1027.7 - 0.0 - - - - - - -
28/06:30pm 12.0 WSW 6 7 1027.6 - 0.0 - - - - - - -
28/06:00pm 12.7 WSW 5 7 1027.3 - 0.0 - - - - - - -
28/05:30pm 13.5 SSE 4 6 1027.2 - 0.0 - - - - - - -
28/05:00pm 13.9 SSE 6 7 1027.0 - 0.0 - - - - - - -
28/04:30pm 13.8 ESE 7 9 1026.9 - 0.0 - - - - - - -
28/04:00pm 14.1 ESE 7 10 1026.7 - 0.0 - - - - - - -
28/03:30pm 14.5 ESE 7 9 1026.8 - 0.0 - - - - - - -
28/03:00pm 15.3 ESE 8 9 1026.9 - 0.0 - - - - - - -
28/02:30pm 14.6 ESE 6 8 1026.9 - 0.0 - - - - - - -
28/02:00pm 16.1 NE 5 7 1026.9 - 0.0 - - - - - - -
28/01:30pm 15.5 NE 5 7 1027.1 - 0.0 - - - - - - -
28/01:00pm 16.4 NNW 5 8 1027.5 - 0.0 - - - - - - -
28/12:30pm 15.5 NNW 5 7 1027.9 - 0.0 - - - - - - -
28/12:00pm 13.9 N 5 7 1028.3 - 0.0 - - - - - - -
28/11:30am 13.1 NNW 7 10 1028.8 - 0.0 - - - - - - -
28/11:00am 12.6 NNW 7 9 1029.1 - 0.0 - - - - - - -
28/10:30am 11.4 N 6 9 1029.3 - 0.0 - - - - - - -
28/10:00am 11.7 NNW 5 7 1029.6 - 0.0 - - - - - - -
28/09:30am 10.1 N 7 10 1029.5 - 0.0 - - - - - - -
28/09:00am 10.9 N 7 11 1029.5 - 0.2 - - - - - - -
28/08:30am 9.6 N 5 7 1029.3 - 0.2 - - - - - - -
28/08:00am 9.3 W 4 5 1029.3 - 0.2 - - - - - - -
28/07:30am 8.2 WNW 3 5 1029.0 - 0.2 - - - - - - -
28/07:00am 8.2 W 4 7 1029.1 - 0.2 - - - - - - -
28/06:30am 8.1 NNW 5 7 1028.6 - 0.0 - - - - - - -
28/06:00am 8.3 CALM 0 0 1028.8 - 0.0 - - - - - - -
28/05:30am 8.6 CALM 0 0 1028.5 - 0.0 - - - - - - -
28/05:00am 8.9 NNW 4 5 1028.6 - 0.0 - - - - - - -
28/04:30am 9.4 N 4 5 1028.4 - 0.0 - - - - - - -
28/04:00am 9.8 NW 2 5 1028.6 - 0.0 - - - - - - -
28/03:30am 9.9 W 3 5 1028.3 - 0.0 - - - - - - -
28/03:00am 10.1 NNW 2 4 1028.5 - 0.0 - - - - - - -
28/02:30am 10.4 W 4 6 1028.4 - 0.0 - - - - - - -
28/02:00am 10.9 CALM 0 1 1028.7 - 0.0 - - - - - - -
28/01:30am 10.7 W 1 4 1028.7 - 0.0 - - - - - - -
28/01:00am 10.8 WSW 1 4 1029.3 - 0.0 - - - - - - -
28/12:30am 11.1 W 3 4 1029.0 - 0.0 - - - - - - -
28/12:00am 11.2 W 4 5 1029.3 - 0.0 - - - - - - -
 
Date/Time
EST
Temp

°C
Wind Pressure Rain
since 9am
mm
Weather Cloud Vis
km
Sea
Height
m
Swell
Dir
 
Speed
knots
Gust
knots
hPa Trend Height
m
Period
s
Dir
27/11:30pm 11.4 W 3 6 1029.0 - 0.0 - - - - - - -
27/11:00pm 12.0 S 2 4 1029.3 - 0.0 - - - - - - -
27/10:30pm 12.4 SSE 4 5 1029.0 - 0.0 - - - - - - -
27/10:00pm 12.7 S 5 9 1029.2 - 0.0 - - - - - - -
27/09:30pm 12.8 S 5 9 1028.9 - 0.0 - - - - - - -
27/09:00pm 12.9 ESE 4 7 1028.9 - 0.0 - - - - - - -
27/08:30pm 12.9 SSW 5 9 1028.4 - 0.0 - - - - - - -
27/08:00pm 13.0 S 5 8 1028.2 - 0.0 - - - - - - -
27/07:30pm 13.4 SSW 7 11 1027.8 - 0.0 - - - - - - -
27/07:00pm 13.1 SSW 6 8 1027.7 - 0.0 - - - - - - -
27/06:30pm 13.5 SSW 5 7 1027.4 - 0.0 - - - - - - -

Other Formats:

Comma delimited format used in spreadsheet applications
http://www.bom.gov.au/fwo/IDT60701/IDT60701.94970.axf

JavaScript Object Notation format (JSON) in row-major order
http://www.bom.gov.au/fwo/IDT60701/IDT60701.94970.json